sensor_id;sensor_type;location;lat;lon;timestamp;pressure;altitude;pressure_sealevel;temperature
7389;BMP180;3735;50.136;11.062;2023-02-08T00:01:25;100380.00;;;-5.60
7389;BMP180;3735;50.136;11.062;2023-02-08T00:03:51;100392.00;;;-5.60
7389;BMP180;3735;50.136;11.062;2023-02-08T00:06:18;100398.00;;;-5.60
7389;BMP180;3735;50.136;11.062;2023-02-08T00:08:44;100402.00;;;-5.60
7389;BMP180;3735;50.136;11.062;2023-02-08T00:11:10;100394.00;;;-5.60
7389;BMP180;3735;50.136;11.062;2023-02-08T00:13:39;100390.00;;;-5.60
7389;BMP180;3735;50.136;11.062;2023-02-08T00:16:05;100387.00;;;-5.60
7389;BMP180;3735;50.136;11.062;2023-02-08T00:18:31;100393.00;;;-5.70
7389;BMP180;3735;50.136;11.062;2023-02-08T00:20:57;100375.00;;;-5.60
7389;BMP180;3735;50.136;11.062;2023-02-08T00:23:24;100389.00;;;-5.70
7389;BMP180;3735;50.136;11.062;2023-02-08T00:25:51;100393.00;;;-5.70
7389;BMP180;3735;50.136;11.062;2023-02-08T00:28:18;100381.00;;;-5.70
7389;BMP180;3735;50.136;11.062;2023-02-08T00:30:44;100395.00;;;-5.70
7389;BMP180;3735;50.136;11.062;2023-02-08T00:33:10;100394.00;;;-5.80
7389;BMP180;3735;50.136;11.062;2023-02-08T00:35:36;100391.00;;;-5.90
7389;BMP180;3735;50.136;11.062;2023-02-08T00:38:02;100397.00;;;-5.90
7389;BMP180;3735;50.136;11.062;2023-02-08T00:40:28;100393.00;;;-6.00
7389;BMP180;3735;50.136;11.062;2023-02-08T00:42:54;100385.00;;;-5.90
7389;BMP180;3735;50.136;11.062;2023-02-08T00:45:19;100384.00;;;-5.90
7389;BMP180;3735;50.136;11.062;2023-02-08T00:47:45;100397.00;;;-5.90
7389;BMP180;3735;50.136;11.062;2023-02-08T00:50:11;100396.00;;;-6.00
7389;BMP180;3735;50.136;11.062;2023-02-08T00:52:37;100369.00;;;-6.00
7389;BMP180;3735;50.136;11.062;2023-02-08T00:55:04;100402.00;;;-6.00
7389;BMP180;3735;50.136;11.062;2023-02-08T00:57:34;100397.00;;;-6.10
7389;BMP180;3735;50.136;11.062;2023-02-08T01:00:00;100399.00;;;-6.10
7389;BMP180;3735;50.136;11.062;2023-02-08T01:02:27;100402.00;;;-6.10
7389;BMP180;3735;50.136;11.062;2023-02-08T01:04:53;100398.00;;;-6.10
7389;BMP180;3735;50.136;11.062;2023-02-08T01:07:18;100390.00;;;-6.10
7389;BMP180;3735;50.136;11.062;2023-02-08T01:09:44;100405.00;;;-6.10
7389;BMP180;3735;50.136;11.062;2023-02-08T01:12:10;100406.00;;;-6.10
7389;BMP180;3735;50.136;11.062;2023-02-08T01:14:37;100394.00;;;-6.20
7389;BMP180;3735;50.136;11.062;2023-02-08T01:17:04;100394.00;;;-6.20
7389;BMP180;3735;50.136;11.062;2023-02-08T01:19:30;100391.00;;;-6.20
7389;BMP180;3735;50.136;11.062;2023-02-08T01:21:55;100398.00;;;-6.10
7389;BMP180;3735;50.136;11.062;2023-02-08T01:24:22;100359.00;;;-6.10
7389;BMP180;3735;50.136;11.062;2023-02-08T01:26:47;100389.00;;;-6.10
7389;BMP180;3735;50.136;11.062;2023-02-08T01:29:14;100393.00;;;-6.10
7389;BMP180;3735;50.136;11.062;2023-02-08T01:31:42;100381.00;;;-6.00
7389;BMP180;3735;50.136;11.062;2023-02-08T01:34:09;100386.00;;;-6.10
7389;BMP180;3735;50.136;11.062;2023-02-08T01:36:36;100385.00;;;-6.10
7389;BMP180;3735;50.136;11.062;2023-02-08T01:39:05;100380.00;;;-6.10
7389;BMP180;3735;50.136;11.062;2023-02-08T01:41:36;100383.00;;;-6.10
7389;BMP180;3735;50.136;11.062;2023-02-08T01:46:38;100379.00;;;-6.20
7389;BMP180;3735;50.136;11.062;2023-02-08T01:52:05;100377.00;;;-6.20
7389;BMP180;3735;50.136;11.062;2023-02-08T01:54:47;100378.00;;;-6.10
7389;BMP180;3735;50.136;11.062;2023-02-08T01:57:14;100383.00;;;-6.00
7389;BMP180;3735;50.136;11.062;2023-02-08T01:59:55;100377.00;;;-6.00
7389;BMP180;3735;50.136;11.062;2023-02-08T02:02:22;100383.00;;;-6.10
7389;BMP180;3735;50.136;11.062;2023-02-08T02:04:51;100379.00;;;-6.10
7389;BMP180;3735;50.136;11.062;2023-02-08T02:07:19;100376.00;;;-6.20
7389;BMP180;3735;50.136;11.062;2023-02-08T02:09:56;100391.00;;;-6.20
7389;BMP180;3735;50.136;11.062;2023-02-08T02:12:27;100385.00;;;-6.30
7389;BMP180;3735;50.136;11.062;2023-02-08T02:14:55;100388.00;;;-6.40
7389;BMP180;3735;50.136;11.062;2023-02-08T02:17:20;100385.00;;;-6.50
7389;BMP180;3735;50.136;11.062;2023-02-08T02:23:02;100375.00;;;-6.70
7389;BMP180;3735;50.136;11.062;2023-02-08T02:32:03;100385.00;;;-6.70
7389;BMP180;3735;50.136;11.062;2023-02-08T02:35:07;100384.00;;;-6.80
7389;BMP180;3735;50.136;11.062;2023-02-08T02:49:08;100374.00;;;-6.70
7389;BMP180;3735;50.136;11.062;2023-02-08T02:52:10;100380.00;;;-6.80
7389;BMP180;3735;50.136;11.062;2023-02-08T02:55:12;100365.00;;;-6.90
7389;BMP180;3735;50.136;11.062;2023-02-08T02:57:43;100330.00;;;-7.00
7389;BMP180;3735;50.136;11.062;2023-02-08T03:00:18;100357.00;;;-7.00
7389;BMP180;3735;50.136;11.062;2023-02-08T03:02:46;100386.00;;;-7.10
7389;BMP180;3735;50.136;11.062;2023-02-08T03:05:12;100383.00;;;-7.00
7389;BMP180;3735;50.136;11.062;2023-02-08T03:08:07;100378.00;;;-7.00
7389;BMP180;3735;50.136;11.062;2023-02-08T03:10:50;100371.00;;;-6.90
7389;BMP180;3735;50.136;11.062;2023-02-08T03:22:18;100389.00;;;-6.90
7389;BMP180;3735;50.136;11.062;2023-02-08T03:24:58;100389.00;;;-6.80
7389;BMP180;3735;50.136;11.062;2023-02-08T03:30:51;100390.00;;;-6.70
7389;BMP180;3735;50.136;11.062;2023-02-08T03:33:29;100370.00;;;-6.70
7389;BMP180;3735;50.136;11.062;2023-02-08T03:36:07;100389.00;;;-6.70
7389;BMP180;3735;50.136;11.062;2023-02-08T03:38:42;100380.00;;;-6.60
7389;BMP180;3735;50.136;11.062;2023-02-08T03:41:24;100386.00;;;-6.60
7389;BMP180;3735;50.136;11.062;2023-02-08T03:43:59;100345.00;;;-6.60
7389;BMP180;3735;50.136;11.062;2023-02-08T03:46:40;100381.00;;;-6.70
7389;BMP180;3735;50.136;11.062;2023-02-08T03:49:17;100361.00;;;-6.70
7389;BMP180;3735;50.136;11.062;2023-02-08T03:51:45;100381.00;;;-6.70
7389;BMP180;3735;50.136;11.062;2023-02-08T03:54:22;100363.00;;;-6.70
7389;BMP180;3735;50.136;11.062;2023-02-08T03:57:23;100390.00;;;-6.80
7389;BMP180;3735;50.136;11.062;2023-02-08T03:59:59;100360.00;;;-7.00
7389;BMP180;3735;50.136;11.062;2023-02-08T04:02:30;100380.00;;;-7.00
7389;BMP180;3735;50.136;11.062;2023-02-08T04:04:58;100349.00;;;-7.10
7389;BMP180;3735;50.136;11.062;2023-02-08T04:07:25;100389.00;;;-7.10
7389;BMP180;3735;50.136;11.062;2023-02-08T04:09:51;100395.00;;;-7.20
7389;BMP180;3735;50.136;11.062;2023-02-08T04:12:17;100393.00;;;-7.20
7389;BMP180;3735;50.136;11.062;2023-02-08T04:14:43;100391.00;;;-7.30
7389;BMP180;3735;50.136;11.062;2023-02-08T04:17:08;100390.00;;;-7.40
7389;BMP180;3735;50.136;11.062;2023-02-08T04:19:34;100369.00;;;-7.40
7389;BMP180;3735;50.136;11.062;2023-02-08T04:22:00;100389.00;;;-7.40
7389;BMP180;3735;50.136;11.062;2023-02-08T04:24:26;100380.00;;;-7.40
7389;BMP180;3735;50.136;11.062;2023-02-08T04:26:52;100393.00;;;-7.40
7389;BMP180;3735;50.136;11.062;2023-02-08T04:29:18;100389.00;;;-7.40
7389;BMP180;3735;50.136;11.062;2023-02-08T04:31:44;100387.00;;;-7.50
7389;BMP180;3735;50.136;11.062;2023-02-08T04:34:09;100389.00;;;-7.40
7389;BMP180;3735;50.136;11.062;2023-02-08T04:36:35;100395.00;;;-7.40
7389;BMP180;3735;50.136;11.062;2023-02-08T04:39:01;100397.00;;;-7.50
7389;BMP180;3735;50.136;11.062;2023-02-08T04:41:27;100384.00;;;-7.50
7389;BMP180;3735;50.136;11.062;2023-02-08T04:43:53;100389.00;;;-7.50
7389;BMP180;3735;50.136;11.062;2023-02-08T04:46:19;100381.00;;;-7.50
7389;BMP180;3735;50.136;11.062;2023-02-08T04:48:44;100390.00;;;-7.50
7389;BMP180;3735;50.136;11.062;2023-02-08T04:51:10;100394.00;;;-7.40
7389;BMP180;3735;50.136;11.062;2023-02-08T04:53:36;100386.00;;;-7.40
7389;BMP180;3735;50.136;11.062;2023-02-08T04:56:02;100394.00;;;-7.30
7389;BMP180;3735;50.136;11.062;2023-02-08T04:58:27;100399.00;;;-7.40
7389;BMP180;3735;50.136;11.062;2023-02-08T05:00:53;100400.00;;;-7.40
7389;BMP180;3735;50.136;11.062;2023-02-08T05:03:19;100404.00;;;-7.40
7389;BMP180;3735;50.136;11.062;2023-02-08T05:05:45;100396.00;;;-7.50
7389;BMP180;3735;50.136;11.062;2023-02-08T05:08:10;100401.00;;;-7.50
7389;BMP180;3735;50.136;11.062;2023-02-08T05:10:36;100399.00;;;-7.60
7389;BMP180;3735;50.136;11.062;2023-02-08T05:13:02;100399.00;;;-7.60
7389;BMP180;3735;50.136;11.062;2023-02-08T05:15:28;100406.00;;;-7.60
7389;BMP180;3735;50.136;11.062;2023-02-08T05:17:54;100404.00;;;-7.50
7389;BMP180;3735;50.136;11.062;2023-02-08T05:20:19;100391.00;;;-7.40
7389;BMP180;3735;50.136;11.062;2023-02-08T05:22:46;100382.00;;;-7.40
7389;BMP180;3735;50.136;11.062;2023-02-08T05:25:11;100385.00;;;-7.40
7389;BMP180;3735;50.136;11.062;2023-02-08T05:27:37;100384.00;;;-7.30
7389;BMP180;3735;50.136;11.062;2023-02-08T05:30:03;100377.00;;;-7.40
7389;BMP180;3735;50.136;11.062;2023-02-08T05:32:29;100386.00;;;-7.50
7389;BMP180;3735;50.136;11.062;2023-02-08T05:34:55;100383.00;;;-7.40
7389;BMP180;3735;50.136;11.062;2023-02-08T05:37:21;100387.00;;;-7.40
7389;BMP180;3735;50.136;11.062;2023-02-08T05:39:46;100358.00;;;-7.20
7389;BMP180;3735;50.136;11.062;2023-02-08T05:42:12;100387.00;;;-7.20
7389;BMP180;3735;50.136;11.062;2023-02-08T05:44:38;100378.00;;;-7.20
7389;BMP180;3735;50.136;11.062;2023-02-08T05:47:04;100385.00;;;-7.20
7389;BMP180;3735;50.136;11.062;2023-02-08T05:49:30;100392.00;;;-7.30
7389;BMP180;3735;50.136;11.062;2023-02-08T05:51:55;100378.00;;;-7.40
7389;BMP180;3735;50.136;11.062;2023-02-08T05:54:21;100367.00;;;-7.50
7389;BMP180;3735;50.136;11.062;2023-02-08T05:56:47;100393.00;;;-7.60
7389;BMP180;3735;50.136;11.062;2023-02-08T05:59:13;100393.00;;;-7.60
7389;BMP180;3735;50.136;11.062;2023-02-08T06:01:39;100364.00;;;-8.10
7389;BMP180;3735;50.136;11.062;2023-02-08T06:04:05;100392.00;;;-7.70
7389;BMP180;3735;50.136;11.062;2023-02-08T06:06:31;100389.00;;;-7.50
7389;BMP180;3735;50.136;11.062;2023-02-08T06:08:56;100342.00;;;-7.50
7389;BMP180;3735;50.136;11.062;2023-02-08T06:11:22;100396.00;;;-7.50
7389;BMP180;3735;50.136;11.062;2023-02-08T06:13:48;100398.00;;;-7.40
7389;BMP180;3735;50.136;11.062;2023-02-08T06:16:14;100400.00;;;-7.40
7389;BMP180;3735;50.136;11.062;2023-02-08T06:18:40;100406.00;;;-7.50
7389;BMP180;3735;50.136;11.062;2023-02-08T06:21:06;100397.00;;;-7.60
7389;BMP180;3735;50.136;11.062;2023-02-08T06:23:33;100362.00;;;-7.60
7389;BMP180;3735;50.136;11.062;2023-02-08T06:25:59;100406.00;;;-7.60
7389;BMP180;3735;50.136;11.062;2023-02-08T06:28:25;100407.00;;;-7.70
7389;BMP180;3735;50.136;11.062;2023-02-08T06:30:51;100416.00;;;-7.70
7389;BMP180;3735;50.136;11.062;2023-02-08T06:33:18;100411.00;;;-7.60
7389;BMP180;3735;50.136;11.062;2023-02-08T06:35:45;100396.00;;;-7.60
7389;BMP180;3735;50.136;11.062;2023-02-08T06:38:12;100406.00;;;-7.60
7389;BMP180;3735;50.136;11.062;2023-02-08T06:40:37;100393.00;;;-7.40
7389;BMP180;3735;50.136;11.062;2023-02-08T06:43:03;100398.00;;;-7.30
7389;BMP180;3735;50.136;11.062;2023-02-08T06:45:29;100392.00;;;-7.40
7389;BMP180;3735;50.136;11.062;2023-02-08T06:47:55;100408.00;;;-7.40
7389;BMP180;3735;50.136;11.062;2023-02-08T06:50:20;100413.00;;;-7.40
7389;BMP180;3735;50.136;11.062;2023-02-08T06:52:46;100419.00;;;-7.40
7389;BMP180;3735;50.136;11.062;2023-02-08T06:55:12;100413.00;;;-7.30
7389;BMP180;3735;50.136;11.062;2023-02-08T06:57:38;100430.00;;;-7.30
7389;BMP180;3735;50.136;11.062;2023-02-08T07:00:05;100389.00;;;-7.30
7389;BMP180;3735;50.136;11.062;2023-02-08T07:02:31;100414.00;;;-7.20
7389;BMP180;3735;50.136;11.062;2023-02-08T07:04:57;100430.00;;;-7.10
7389;BMP180;3735;50.136;11.062;2023-02-08T07:07:23;100435.00;;;-7.10
7389;BMP180;3735;50.136;11.062;2023-02-08T07:09:49;100436.00;;;-7.10
7389;BMP180;3735;50.136;11.062;2023-02-08T07:12:15;100436.00;;;-7.10
7389;BMP180;3735;50.136;11.062;2023-02-08T07:14:42;100422.00;;;-7.00
7389;BMP180;3735;50.136;11.062;2023-02-08T07:17:10;100447.00;;;-7.10
7389;BMP180;3735;50.136;11.062;2023-02-08T07:19:36;100442.00;;;-7.10
7389;BMP180;3735;50.136;11.062;2023-02-08T07:22:02;100430.00;;;-7.10
7389;BMP180;3735;50.136;11.062;2023-02-08T07:24:40;100412.00;;;-7.10
7389;BMP180;3735;50.136;11.062;2023-02-08T07:27:07;100433.00;;;-7.10
7389;BMP180;3735;50.136;11.062;2023-02-08T07:29:34;100434.00;;;-7.00
7389;BMP180;3735;50.136;11.062;2023-02-08T07:32:01;100429.00;;;-6.90
7389;BMP180;3735;50.136;11.062;2023-02-08T07:34:31;100433.00;;;-6.80
7389;BMP180;3735;50.136;11.062;2023-02-08T07:36:57;100429.00;;;-6.60
7389;BMP180;3735;50.136;11.062;2023-02-08T07:39:23;100429.00;;;-6.50
7389;BMP180;3735;50.136;11.062;2023-02-08T07:41:50;100405.00;;;-6.40
7389;BMP180;3735;50.136;11.062;2023-02-08T07:44:15;100409.00;;;-6.20
7389;BMP180;3735;50.136;11.062;2023-02-08T07:46:41;100414.00;;;-6.10
7389;BMP180;3735;50.136;11.062;2023-02-08T07:49:07;100411.00;;;-5.90
7389;BMP180;3735;50.136;11.062;2023-02-08T07:51:33;100414.00;;;-5.70
7389;BMP180;3735;50.136;11.062;2023-02-08T07:53:59;100403.00;;;-5.30
7389;BMP180;3735;50.136;11.062;2023-02-08T07:56:25;100402.00;;;-4.80
7389;BMP180;3735;50.136;11.062;2023-02-08T07:58:50;100394.00;;;-4.10
7389;BMP180;3735;50.136;11.062;2023-02-08T08:01:16;100394.00;;;-3.20
7389;BMP180;3735;50.136;11.062;2023-02-08T08:03:42;100362.00;;;-2.50
7389;BMP180;3735;50.136;11.062;2023-02-08T08:06:10;100367.00;;;-1.70
7389;BMP180;3735;50.136;11.062;2023-02-08T08:08:36;100374.00;;;-1.20
7389;BMP180;3735;50.136;11.062;2023-02-08T08:11:02;100366.00;;;-0.60
7389;BMP180;3735;50.136;11.062;2023-02-08T08:13:28;100353.00;;;0.10
7389;BMP180;3735;50.136;11.062;2023-02-08T08:15:53;100343.00;;;0.80
7389;BMP180;3735;50.136;11.062;2023-02-08T08:18:19;100345.00;;;1.30
7389;BMP180;3735;50.136;11.062;2023-02-08T08:20:45;100344.00;;;1.70
7389;BMP180;3735;50.136;11.062;2023-02-08T08:23:11;100340.00;;;2.10
7389;BMP180;3735;50.136;11.062;2023-02-08T08:25:37;100340.00;;;2.60
7389;BMP180;3735;50.136;11.062;2023-02-08T08:28:04;100330.00;;;2.70
7389;BMP180;3735;50.136;11.062;2023-02-08T08:30:30;100336.00;;;1.60
7389;BMP180;3735;50.136;11.062;2023-02-08T08:32:56;100346.00;;;0.80
7389;BMP180;3735;50.136;11.062;2023-02-08T08:35:22;100340.00;;;0.10
7389;BMP180;3735;50.136;11.062;2023-02-08T08:37:47;100346.00;;;-0.30
7389;BMP180;3735;50.136;11.062;2023-02-08T08:40:13;100344.00;;;-0.70
7389;BMP180;3735;50.136;11.062;2023-02-08T08:42:39;100350.00;;;-1.00
7389;BMP180;3735;50.136;11.062;2023-02-08T08:45:06;100353.00;;;-1.20
7389;BMP180;3735;50.136;11.062;2023-02-08T08:47:32;100356.00;;;-1.50
7389;BMP180;3735;50.136;11.062;2023-02-08T08:49:58;100361.00;;;-1.50
7389;BMP180;3735;50.136;11.062;2023-02-08T08:52:24;100354.00;;;-1.70
7389;BMP180;3735;50.136;11.062;2023-02-08T08:54:49;100364.00;;;-1.70
7389;BMP180;3735;50.136;11.062;2023-02-08T08:57:16;100359.00;;;-1.80
7389;BMP180;3735;50.136;11.062;2023-02-08T08:59:42;100357.00;;;-1.70
7389;BMP180;3735;50.136;11.062;2023-02-08T09:02:12;100351.00;;;-1.60
7389;BMP180;3735;50.136;11.062;2023-02-08T09:04:37;100356.00;;;-1.60
7389;BMP180;3735;50.136;11.062;2023-02-08T09:07:07;100352.00;;;-1.50
7389;BMP180;3735;50.136;11.062;2023-02-08T09:09:34;100350.00;;;-1.30
7389;BMP180;3735;50.136;11.062;2023-02-08T09:12:01;100355.00;;;-1.20
7389;BMP180;3735;50.136;11.062;2023-02-08T09:14:26;100358.00;;;-1.20
7389;BMP180;3735;50.136;11.062;2023-02-08T09:16:53;100354.00;;;-1.30
7389;BMP180;3735;50.136;11.062;2023-02-08T09:19:18;100367.00;;;-1.10
7389;BMP180;3735;50.136;11.062;2023-02-08T09:21:44;100353.00;;;-1.00
7389;BMP180;3735;50.136;11.062;2023-02-08T09:24:11;100354.00;;;-0.90
7389;BMP180;3735;50.136;11.062;2023-02-08T09:26:37;100350.00;;;-1.00
7389;BMP180;3735;50.136;11.062;2023-02-08T09:29:04;100337.00;;;-0.40
7389;BMP180;3735;50.136;11.062;2023-02-08T09:31:34;100342.00;;;0.40
7389;BMP180;3735;50.136;11.062;2023-02-08T09:34:05;100340.00;;;1.50
7389;BMP180;3735;50.136;11.062;2023-02-08T09:36:35;100317.00;;;3.00
7389;BMP180;3735;50.136;11.062;2023-02-08T09:39:13;100310.00;;;4.10
7389;BMP180;3735;50.136;11.062;2023-02-08T09:42:25;100301.00;;;5.20
7389;BMP180;3735;50.136;11.062;2023-02-08T09:50:41;100296.00;;;6.80
7389;BMP180;3735;50.136;11.062;2023-02-08T09:53:45;100294.00;;;7.10
7389;BMP180;3735;50.136;11.062;2023-02-08T09:56:19;100279.00;;;7.50
7389;BMP180;3735;50.136;11.062;2023-02-08T09:58:51;100278.00;;;7.40
7389;BMP180;3735;50.136;11.062;2023-02-08T10:01:23;100289.00;;;7.70
7389;BMP180;3735;50.136;11.062;2023-02-08T10:03:56;100286.00;;;7.80
7389;BMP180;3735;50.136;11.062;2023-02-08T10:06:22;100283.00;;;8.20
7389;BMP180;3735;50.136;11.062;2023-02-08T10:08:51;100288.00;;;8.60
7389;BMP180;3735;50.136;11.062;2023-02-08T10:11:40;100284.00;;;8.70
7389;BMP180;3735;50.136;11.062;2023-02-08T10:17:29;100266.00;;;10.20
7389;BMP180;3735;50.136;11.062;2023-02-08T10:25:50;100264.00;;;10.90
7389;BMP180;3735;50.136;11.062;2023-02-08T10:29:33;100268.00;;;11.20
7389;BMP180;3735;50.136;11.062;2023-02-08T10:37:31;100260.00;;;10.30
7389;BMP180;3735;50.136;11.062;2023-02-08T10:40:34;100260.00;;;10.80
7389;BMP180;3735;50.136;11.062;2023-02-08T10:46:37;100259.00;;;10.80
7389;BMP180;3735;50.136;11.062;2023-02-08T10:49:27;100258.00;;;10.80
7389;BMP180;3735;50.136;11.062;2023-02-08T10:51:56;100253.00;;;10.10
7389;BMP180;3735;50.136;11.062;2023-02-08T10:54:22;100254.00;;;11.20
7389;BMP180;3735;50.136;11.062;2023-02-08T10:57:04;100250.00;;;10.90
7389;BMP180;3735;50.136;11.062;2023-02-08T10:59:36;100246.00;;;11.40
7389;BMP180;3735;50.136;11.062;2023-02-08T11:02:53;100245.00;;;11.40
7389;BMP180;3735;50.136;11.062;2023-02-08T11:10:38;100230.00;;;11.40
7389;BMP180;3735;50.136;11.062;2023-02-08T11:15:55;100228.00;;;11.40
7389;BMP180;3735;50.136;11.062;2023-02-08T11:21:03;100221.00;;;10.80
7389;BMP180;3735;50.136;11.062;2023-02-08T11:23:36;100210.00;;;11.00
7389;BMP180;3735;50.136;11.062;2023-02-08T11:28:41;100205.00;;;11.50
7389;BMP180;3735;50.136;11.062;2023-02-08T11:31:19;100213.00;;;12.00
7389;BMP180;3735;50.136;11.062;2023-02-08T11:34:02;100205.00;;;11.90
7389;BMP180;3735;50.136;11.062;2023-02-08T11:36:31;100209.00;;;11.80
7389;BMP180;3735;50.136;11.062;2023-02-08T11:39:16;100195.00;;;12.10
7389;BMP180;3735;50.136;11.062;2023-02-08T11:41:48;100194.00;;;12.10
7389;BMP180;3735;50.136;11.062;2023-02-08T11:44:25;100191.00;;;12.00
7389;BMP180;3735;50.136;11.062;2023-02-08T11:46:53;100194.00;;;12.30
7389;BMP180;3735;50.136;11.062;2023-02-08T11:49:28;100183.00;;;12.60
7389;BMP180;3735;50.136;11.062;2023-02-08T11:51:55;100178.00;;;11.50
7389;BMP180;3735;50.136;11.062;2023-02-08T11:54:41;100172.00;;;12.60
7389;BMP180;3735;50.136;11.062;2023-02-08T11:57:25;100170.00;;;12.50
7389;BMP180;3735;50.136;11.062;2023-02-08T12:00:28;100176.00;;;12.10
7389;BMP180;3735;50.136;11.062;2023-02-08T12:03:16;100163.00;;;12.20
7389;BMP180;3735;50.136;11.062;2023-02-08T12:15:02;100158.00;;;12.30
7389;BMP180;3735;50.136;11.062;2023-02-08T12:20:36;100142.00;;;12.40
7389;BMP180;3735;50.136;11.062;2023-02-08T12:26:14;100138.00;;;11.90
7389;BMP180;3735;50.136;11.062;2023-02-08T12:40:34;100140.00;;;12.90
7389;BMP180;3735;50.136;11.062;2023-02-08T12:52:41;100130.00;;;13.40
7389;BMP180;3735;50.136;11.062;2023-02-08T12:55:29;100127.00;;;12.80
7389;BMP180;3735;50.136;11.062;2023-02-08T13:00:45;100119.00;;;12.00
7389;BMP180;3735;50.136;11.062;2023-02-08T13:03:34;100115.00;;;11.60
7389;BMP180;3735;50.136;11.062;2023-02-08T13:06:14;100117.00;;;12.20
7389;BMP180;3735;50.136;11.062;2023-02-08T13:11:48;100110.00;;;12.70
7389;BMP180;3735;50.136;11.062;2023-02-08T13:14:33;100107.00;;;13.00
7389;BMP180;3735;50.136;11.062;2023-02-08T13:17:25;100097.00;;;12.30
7389;BMP180;3735;50.136;11.062;2023-02-08T13:20:15;100098.00;;;12.60
7389;BMP180;3735;50.136;11.062;2023-02-08T13:22:45;100102.00;;;12.40
7389;BMP180;3735;50.136;11.062;2023-02-08T13:25:34;100103.00;;;12.40
7389;BMP180;3735;50.136;11.062;2023-02-08T13:28:06;100101.00;;;11.80
7389;BMP180;3735;50.136;11.062;2023-02-08T13:30:37;100100.00;;;12.10
7389;BMP180;3735;50.136;11.062;2023-02-08T13:33:45;100091.00;;;12.40
7389;BMP180;3735;50.136;11.062;2023-02-08T13:36:27;100090.00;;;12.00
7389;BMP180;3735;50.136;11.062;2023-02-08T13:38:55;100086.00;;;11.80
7389;BMP180;3735;50.136;11.062;2023-02-08T13:41:25;100090.00;;;12.00
7389;BMP180;3735;50.136;11.062;2023-02-08T13:43:57;100080.00;;;11.10
7389;BMP180;3735;50.136;11.062;2023-02-08T13:46:35;100078.00;;;11.00
7389;BMP180;3735;50.136;11.062;2023-02-08T13:49:01;100077.00;;;10.60
7389;BMP180;3735;50.136;11.062;2023-02-08T13:56:44;100075.00;;;10.70
7389;BMP180;3735;50.136;11.062;2023-02-08T13:59:29;100063.00;;;11.10
7389;BMP180;3735;50.136;11.062;2023-02-08T14:02:20;100061.00;;;11.60
7389;BMP180;3735;50.136;11.062;2023-02-08T14:05:32;100055.00;;;11.60
7389;BMP180;3735;50.136;11.062;2023-02-08T14:08:02;100056.00;;;11.70
7389;BMP180;3735;50.136;11.062;2023-02-08T14:10:50;100057.00;;;11.90
7389;BMP180;3735;50.136;11.062;2023-02-08T14:13:33;100051.00;;;12.00
7389;BMP180;3735;50.136;11.062;2023-02-08T14:16:40;100033.00;;;11.90
7389;BMP180;3735;50.136;11.062;2023-02-08T14:19:26;100051.00;;;11.70
7389;BMP180;3735;50.136;11.062;2023-02-08T14:24:40;100052.00;;;11.60
7389;BMP180;3735;50.136;11.062;2023-02-08T14:27:34;100051.00;;;11.70
7389;BMP180;3735;50.136;11.062;2023-02-08T14:30:30;100042.00;;;11.80
7389;BMP180;3735;50.136;11.062;2023-02-08T14:35:30;100029.00;;;10.70
7389;BMP180;3735;50.136;11.062;2023-02-08T14:41:06;100019.00;;;11.60
7389;BMP180;3735;50.136;11.062;2023-02-08T14:43:40;100023.00;;;11.70
7389;BMP180;3735;50.136;11.062;2023-02-08T14:49:17;100024.00;;;10.70
7389;BMP180;3735;50.136;11.062;2023-02-08T14:51:55;100032.00;;;11.00
7389;BMP180;3735;50.136;11.062;2023-02-08T14:54:32;100031.00;;;10.90
7389;BMP180;3735;50.136;11.062;2023-02-08T14:57:06;100025.00;;;11.10
7389;BMP180;3735;50.136;11.062;2023-02-08T14:59:40;100027.00;;;11.20
7389;BMP180;3735;50.136;11.062;2023-02-08T15:02:19;100030.00;;;11.00
7389;BMP180;3735;50.136;11.062;2023-02-08T15:04:46;100020.00;;;10.10
7389;BMP180;3735;50.136;11.062;2023-02-08T15:09:55;100025.00;;;10.20
7389;BMP180;3735;50.136;11.062;2023-02-08T15:12:29;100021.00;;;10.20
7389;BMP180;3735;50.136;11.062;2023-02-08T15:14:59;100024.00;;;10.00
7389;BMP180;3735;50.136;11.062;2023-02-08T15:17:39;100031.00;;;9.90
7389;BMP180;3735;50.136;11.062;2023-02-08T15:20:25;100021.00;;;9.90
7389;BMP180;3735;50.136;11.062;2023-02-08T15:23:21;100022.00;;;9.20
7389;BMP180;3735;50.136;11.062;2023-02-08T15:26:21;100024.00;;;8.00
7389;BMP180;3735;50.136;11.062;2023-02-08T15:28:47;100022.00;;;6.80
7389;BMP180;3735;50.136;11.062;2023-02-08T15:31:23;100021.00;;;6.40
7389;BMP180;3735;50.136;11.062;2023-02-08T15:33:52;100032.00;;;5.70
7389;BMP180;3735;50.136;11.062;2023-02-08T15:36:30;100041.00;;;5.10
7389;BMP180;3735;50.136;11.062;2023-02-08T15:38:59;100025.00;;;4.60
7389;BMP180;3735;50.136;11.062;2023-02-08T15:41:32;100022.00;;;4.30
7389;BMP180;3735;50.136;11.062;2023-02-08T15:46:48;100024.00;;;3.60
7389;BMP180;3735;50.136;11.062;2023-02-08T15:49:27;100035.00;;;3.40
7389;BMP180;3735;50.136;11.062;2023-02-08T15:51:55;100019.00;;;3.10
7389;BMP180;3735;50.136;11.062;2023-02-08T15:54:22;100036.00;;;2.90
7389;BMP180;3735;50.136;11.062;2023-02-08T15:59:29;100028.00;;;2.60
7389;BMP180;3735;50.136;11.062;2023-02-08T16:02:21;100028.00;;;2.40
7389;BMP180;3735;50.136;11.062;2023-02-08T16:04:47;100022.00;;;2.30
7389;BMP180;3735;50.136;11.062;2023-02-08T16:07:38;100013.00;;;2.10
7389;BMP180;3735;50.136;11.062;2023-02-08T16:12:58;100021.00;;;1.70
7389;BMP180;3735;50.136;11.062;2023-02-08T16:15:43;100018.00;;;1.50
7389;BMP180;3735;50.136;11.062;2023-02-08T16:18:37;100016.00;;;1.40
7389;BMP180;3735;50.136;11.062;2023-02-08T16:21:18;100022.00;;;1.40
7389;BMP180;3735;50.136;11.062;2023-02-08T16:26:53;100027.00;;;1.30
7389;BMP180;3735;50.136;11.062;2023-02-08T16:29:35;100020.00;;;1.30
7389;BMP180;3735;50.136;11.062;2023-02-08T16:32:34;100022.00;;;1.20
7389;BMP180;3735;50.136;11.062;2023-02-08T16:35:22;100026.00;;;1.10
7389;BMP180;3735;50.136;11.062;2023-02-08T16:37:58;100028.00;;;1.00
7389;BMP180;3735;50.136;11.062;2023-02-08T16:40:54;100031.00;;;0.90
7389;BMP180;3735;50.136;11.062;2023-02-08T16:43:32;100025.00;;;0.80
7389;BMP180;3735;50.136;11.062;2023-02-08T16:48:42;100036.00;;;0.50
7389;BMP180;3735;50.136;11.062;2023-02-08T16:51:30;100036.00;;;0.30
7389;BMP180;3735;50.136;11.062;2023-02-08T16:54:04;100035.00;;;0.20
7389;BMP180;3735;50.136;11.062;2023-02-08T16:56:37;100035.00;;;0.10
7389;BMP180;3735;50.136;11.062;2023-02-08T16:59:04;100038.00;;;0.20
7389;BMP180;3735;50.136;11.062;2023-02-08T17:01:31;100031.00;;;0.20
7389;BMP180;3735;50.136;11.062;2023-02-08T17:03:58;100024.00;;;0.10
7389;BMP180;3735;50.136;11.062;2023-02-08T17:06:33;100037.00;;;0.10
7389;BMP180;3735;50.136;11.062;2023-02-08T17:09:03;100026.00;;;0.10
7389;BMP180;3735;50.136;11.062;2023-02-08T17:11:30;100035.00;;;0.10